Mountain Home, Wyoming
Current Conditions -  °F | °C
As of 5:53 AM on Tuesday 21 Oct 2014 (Local Time) from KLAR Reporting Station
Scattered Clouds Scattered Clouds  
Wind Chill: 30°   Ceiling: Unl
Heat Index: 36°   Visibility: 10mi
Dew Point: 30°   Wind: 8mph
Humidity: 79%   Direction: 200°SSW
Pressure: 30.12"   Gusts: NA
Location:  41.2601°N, 105.565°W
Report Text: KLAR 211153Z AUTO 20007KT 10SM SCT095 02/M01 A3012 RMK AO2 SLP138 T00221011 10056 20017 56003
Loading
Personal Weather Stations






























Interactive Weather Map
Tropical Storm Tracking
New forecast layout! Learn more

10-Day Weather Forecast

Advertisements
Track Severe Weather on mobile